createdAt,value
2022-10-13T00:00:48.236Z,99375.84
2022-10-13T00:03:15.911Z,99373.25
2022-10-13T00:05:44.996Z,99375.91
2022-10-13T00:08:12.874Z,99371.50
2022-10-13T00:10:44.063Z,99368.84
2022-10-13T00:13:11.843Z,99371.50
2022-10-13T00:15:43.060Z,99373.25
2022-10-13T00:18:09.697Z,99375.06
2022-10-13T00:20:41.370Z,99374.13
2022-10-13T00:23:08.759Z,99373.25
2022-10-13T00:25:35.290Z,99369.78
2022-10-13T00:28:01.878Z,99371.59
2022-10-13T00:30:34.855Z,99369.78
2022-10-13T00:33:01.454Z,99370.72
2022-10-13T00:35:28.000Z,99366.31
2022-10-13T00:37:54.560Z,99365.44
2022-10-13T00:40:21.033Z,99364.59
2022-10-13T00:42:47.637Z,99365.44
2022-10-13T00:45:29.445Z,99363.66
2022-10-13T00:48:01.784Z,99358.38
2022-10-13T00:50:32.049Z,99368.06
2022-10-13T00:53:01.163Z,99363.66
2022-10-13T00:55:31.901Z,99357.50
2022-10-13T00:58:05.186Z,99360.16
2022-10-13T01:00:33.461Z,99355.13
2022-10-13T01:03:01.155Z,99354.09
2022-10-13T01:05:28.424Z,99346.94
2022-10-13T01:07:56.078Z,99354.88
2022-10-13T01:10:34.948Z,99352.22
2022-10-13T01:13:13.788Z,99340.31
2022-10-13T01:15:51.046Z,99348.75
2022-10-13T01:18:41.045Z,99341.66
2022-10-13T01:21:07.787Z,99339.97
2022-10-13T01:23:34.213Z,99349.69
2022-10-13T01:26:15.793Z,99343.47
2022-10-13T01:29:30.689Z,99347.88
2022-10-13T01:32:11.096Z,99346.19
2022-10-13T01:35:06.543Z,99342.59
2022-10-13T01:37:39.752Z,99331.28
2022-10-13T01:40:24.361Z,99332.13
2022-10-13T01:43:02.050Z,99325.06
2022-10-13T01:45:35.460Z,99325.06
2022-10-13T01:48:04.740Z,99322.41
2022-10-13T01:50:34.309Z,99324.22
2022-10-13T01:53:03.813Z,99311.25
2022-10-13T01:55:32.120Z,99323.28
2022-10-13T01:57:58.717Z,99330.34
2022-10-13T02:00:26.190Z,99327.63
2022-10-13T02:03:17.659Z,99325.06
2022-10-13T02:05:51.744Z,99322.41
2022-10-13T02:10:47.305Z,99322.41
2022-10-13T02:13:17.524Z,99322.41
2022-10-13T02:15:48.448Z,99316.28
2022-10-13T02:18:18.661Z,99316.28
2022-10-13T02:20:45.976Z,99311.00
2022-10-13T02:23:16.364Z,99312.81
2022-10-13T02:25:44.384Z,99310.16
2022-10-13T02:28:12.961Z,99311.00
2022-10-13T02:30:44.177Z,99303.19
2022-10-13T02:35:34.640Z,99281.81
2022-10-13T02:38:01.981Z,99304.88
2022-10-13T02:40:28.516Z,99297.03
2022-10-13T02:42:55.117Z,99299.66
2022-10-13T02:45:21.699Z,99295.25
2022-10-13T02:47:49.847Z,99292.72
2022-10-13T02:50:16.613Z,99298.75
2022-10-13T02:52:43.204Z,99299.66
2022-10-13T02:55:10.051Z,99303.19
2022-10-13T02:57:37.757Z,99303.09
2022-10-13T03:00:07.170Z,99302.25
2022-10-13T03:02:33.829Z,99299.66
2022-10-13T03:05:00.326Z,99299.66
2022-10-13T03:07:27.193Z,99297.91
2022-10-13T03:09:53.688Z,99297.91
2022-10-13T03:12:20.498Z,99294.38
2022-10-13T03:14:47.357Z,99293.47
2022-10-13T03:17:13.967Z,99283.81
2022-10-13T03:19:40.520Z,99291.75
2022-10-13T03:22:09.585Z,99294.38
2022-10-13T03:24:36.096Z,99296.97
2022-10-13T03:27:02.677Z,99291.75
2022-10-13T03:29:29.435Z,99290.91
2022-10-13T03:31:55.969Z,99291.75
2022-10-13T03:34:22.492Z,99282.16
2022-10-13T03:36:49.128Z,99286.47
2022-10-13T03:39:15.753Z,99285.63
2022-10-13T03:41:42.916Z,99284.78
2022-10-13T03:44:12.340Z,99298.84
2022-10-13T03:46:39.393Z,99287.44
2022-10-13T03:49:06.520Z,99283.25
2022-10-13T03:51:33.241Z,99289.22
2022-10-13T03:56:29.445Z,99286.56
2022-10-13T03:58:58.780Z,99289.22
2022-10-13T04:01:27.528Z,99285.78
2022-10-13T04:03:55.705Z,99275.44
2022-10-13T04:06:23.325Z,99282.06
2022-10-13T04:08:49.968Z,99275.44
2022-10-13T04:11:16.944Z,99286.41
2022-10-13T04:13:45.010Z,99282.22
2022-10-13T04:16:31.764Z,99290.91
2022-10-13T04:19:05.103Z,99281.28
2022-10-13T04:21:33.557Z,99284.03
2022-10-13T04:24:01.763Z,99280.59
2022-10-13T04:26:31.447Z,99285.06
2022-10-13T04:28:58.885Z,99284.19
2022-10-13T04:31:27.963Z,99284.28
2022-10-13T04:33:54.555Z,99291.28
2022-10-13T04:36:23.395Z,99286.09
2022-10-13T04:38:50.844Z,99289.66
2022-10-13T04:41:18.936Z,99275.75
2022-10-13T04:43:52.582Z,99224.72
2022-10-13T04:46:22.213Z,99281.81
2022-10-13T04:48:48.747Z,99277.47
2022-10-13T04:51:18.536Z,99279.22
2022-10-13T04:53:45.439Z,99278.38
2022-10-13T04:56:16.742Z,99274.91
2022-10-13T04:58:45.286Z,99274.91
2022-10-13T05:01:20.503Z,99272.28
2022-10-13T05:03:58.435Z,99268.75
2022-10-13T05:06:27.284Z,99271.41
2022-10-13T05:08:57.497Z,99270.56
2022-10-13T05:11:26.675Z,99272.34
2022-10-13T05:13:53.878Z,99278.56
2022-10-13T05:16:21.380Z,99279.41
2022-10-13T05:18:49.460Z,99276.78
2022-10-13T05:21:18.872Z,99274.13
2022-10-13T05:23:45.963Z,99264.09
2022-10-13T05:26:16.160Z,99278.47
2022-10-13T05:28:44.028Z,99282.06
2022-10-13T05:31:16.144Z,99281.19
2022-10-13T05:33:44.035Z,99282.91
2022-10-13T05:36:16.993Z,99283.75
2022-10-13T05:38:44.263Z,99283.94
2022-10-13T05:41:14.485Z,99290.81
2022-10-13T05:43:42.338Z,99289.97
2022-10-13T05:46:09.483Z,99286.41
2022-10-13T05:48:37.356Z,99281.97
2022-10-13T05:51:17.901Z,99282.91
2022-10-13T05:53:58.653Z,99286.41
2022-10-13T05:56:29.982Z,99285.53
2022-10-13T05:59:00.405Z,99287.44
2022-10-13T06:01:30.315Z,99289.88
2022-10-13T06:04:00.383Z,99295.16
2022-10-13T06:06:31.167Z,99295.16
2022-10-13T06:08:58.941Z,99288.94
2022-10-13T06:11:25.504Z,99289.78
2022-10-13T06:13:52.138Z,99298.47
2022-10-13T06:16:18.748Z,99292.38
2022-10-13T06:18:45.315Z,99292.31
2022-10-13T06:21:13.397Z,99298.41
2022-10-13T06:23:40.025Z,99294.84
2022-10-13T06:26:07.951Z,99294.00
2022-10-13T06:28:37.324Z,99284.28
2022-10-13T06:31:06.549Z,99290.44
2022-10-13T06:33:34.710Z,99290.34
2022-10-13T06:36:03.308Z,99286.81
2022-10-13T06:38:30.416Z,99292.97
2022-10-13T06:41:04.649Z,99293.06
2022-10-13T06:43:39.643Z,99292.88
2022-10-13T06:46:10.635Z,99296.34
2022-10-13T06:48:37.678Z,99284.03
2022-10-13T06:51:10.280Z,99284.84
2022-10-13T06:53:37.460Z,99284.84
2022-10-13T06:56:06.173Z,99279.50
2022-10-13T06:58:34.446Z,99269.44
2022-10-13T07:01:01.080Z,99283.00
2022-10-13T07:03:27.882Z,99267.59
2022-10-13T07:05:54.609Z,99283.00
2022-10-13T07:08:21.529Z,99268.53
2022-10-13T07:10:48.774Z,99279.41
2022-10-13T07:13:15.341Z,99275.91
2022-10-13T07:15:41.960Z,99281.97
2022-10-13T07:18:08.672Z,99283.66
2022-10-13T07:20:35.495Z,99280.94
2022-10-13T07:23:02.546Z,99280.94
2022-10-13T07:25:29.065Z,99278.38
2022-10-13T07:27:55.701Z,99276.59
2022-10-13T07:30:22.357Z,99279.16
2022-10-13T07:32:49.283Z,99281.81
2022-10-13T07:35:15.831Z,99277.34
2022-10-13T07:37:42.444Z,99273.88
2022-10-13T07:40:09.580Z,99270.25
2022-10-13T07:42:36.121Z,99271.13
2022-10-13T07:45:02.923Z,99264.97
2022-10-13T07:47:32.138Z,99262.34
2022-10-13T07:49:58.673Z,99263.22
2022-10-13T07:52:25.376Z,99264.91
2022-10-13T07:54:51.868Z,99262.28
2022-10-13T07:57:18.448Z,99255.19
2022-10-13T07:59:45.880Z,99260.47
2022-10-13T08:02:13.164Z,99255.09
2022-10-13T08:04:39.820Z,99252.44
2022-10-13T08:07:07.191Z,99248.03
2022-10-13T08:09:34.377Z,99243.69
2022-10-13T08:12:01.948Z,99247.09
2022-10-13T08:14:29.607Z,99250.59
2022-10-13T08:16:57.740Z,99241.81
2022-10-13T08:19:26.389Z,99247.00
2022-10-13T08:21:58.295Z,99227.28
2022-10-13T08:24:26.082Z,99231.16
2022-10-13T08:26:52.601Z,99222.66
2022-10-13T08:29:23.875Z,99228.50
2022-10-13T08:31:55.294Z,99227.84
2022-10-13T08:34:23.551Z,99231.06
2022-10-13T08:36:54.058Z,99225.78
2022-10-13T08:39:21.657Z,99226.66
2022-10-13T08:41:48.352Z,99216.06
2022-10-13T08:47:40.295Z,99222.09
2022-10-13T08:50:19.462Z,99219.47
2022-10-13T08:52:57.285Z,99217.69
2022-10-13T08:55:25.857Z,99215.97
2022-10-13T08:57:52.892Z,99210.59
2022-10-13T09:00:24.630Z,99214.94
2022-10-13T09:02:51.396Z,99200.97
2022-10-13T09:05:41.256Z,99202.56
2022-10-13T09:08:17.639Z,99210.50
2022-10-13T09:10:49.131Z,99199.09
2022-10-13T09:13:19.664Z,99205.16
2022-10-13T09:15:50.274Z,99195.31
2022-10-13T09:18:17.019Z,99196.25
2022-10-13T09:20:43.540Z,99192.66
2022-10-13T09:23:22.584Z,99191.75
2022-10-13T09:25:51.692Z,99198.72
2022-10-13T09:28:29.482Z,99198.72
2022-10-13T09:31:11.611Z,99195.16
2022-10-13T09:33:40.733Z,99192.50
2022-10-13T09:36:13.378Z,99194.22
2022-10-13T09:38:42.920Z,99190.59
2022-10-13T09:41:10.536Z,99198.44
2022-10-13T09:43:46.073Z,99195.72
2022-10-13T09:46:54.865Z,99192.22
2022-10-13T09:49:35.304Z,99186.84
2022-10-13T09:52:17.312Z,99188.56
2022-10-13T09:54:46.608Z,99178.81
2022-10-13T09:57:48.172Z,99177.00
2022-10-13T10:00:23.623Z,99176.06
2022-10-13T10:02:53.090Z,99166.38
2022-10-13T10:05:45.704Z,99163.72
2022-10-13T10:08:58.091Z,99161.81
2022-10-13T10:11:37.792Z,99152.97
2022-10-13T10:14:18.284Z,99151.19
2022-10-13T10:16:50.039Z,99150.22
2022-10-13T10:19:30.552Z,99147.50
2022-10-13T10:21:57.169Z,99143.03
2022-10-13T10:25:14.544Z,99139.47
2022-10-13T10:27:51.559Z,99142.13
2022-10-13T10:30:22.725Z,99144.66
2022-10-13T10:32:54.867Z,99141.06
2022-10-13T10:35:44.166Z,99138.44
2022-10-13T10:38:14.054Z,99135.78
2022-10-13T10:41:02.812Z,99121.63
2022-10-13T10:43:51.721Z,99133.81
2022-10-13T10:46:32.149Z,99118.06
2022-10-13T10:49:02.636Z,99124.06
2022-10-13T10:51:36.611Z,99121.34
2022-10-13T10:54:21.752Z,99118.72
2022-10-13T10:56:58.337Z,99113.31
2022-10-13T10:59:37.373Z,99116.78
2022-10-13T11:02:18.660Z,99113.31
2022-10-13T11:04:50.013Z,99103.97
2022-10-13T11:07:22.616Z,99105.19
2022-10-13T11:09:49.528Z,99105.19
2022-10-13T11:12:18.881Z,99098.94
2022-10-13T11:15:03.870Z,99094.53
2022-10-13T11:17:37.807Z,99079.06
2022-10-13T11:20:25.335Z,99095.25
2022-10-13T11:23:01.260Z,99085.56
2022-10-13T11:25:37.348Z,99084.63
2022-10-13T11:28:22.765Z,99080.16
2022-10-13T11:30:50.559Z,99069.03
2022-10-13T11:33:48.076Z,99072.25
2022-10-13T11:36:49.350Z,99063.53
2022-10-13T11:39:25.987Z,99063.38
2022-10-13T11:42:16.885Z,99055.84
2022-10-13T11:44:57.551Z,99060.72
2022-10-13T11:47:42.997Z,99070.34
2022-10-13T11:50:38.041Z,99059.69
2022-10-13T11:53:24.389Z,99025.09
2022-10-13T11:55:55.101Z,99056.94
2022-10-13T11:58:25.188Z,99049.88
2022-10-13T12:00:51.684Z,99045.41
2022-10-13T12:03:30.666Z,99044.47
2022-10-13T12:06:16.181Z,99044.47
2022-10-13T12:08:47.872Z,99043.53
2022-10-13T12:11:26.241Z,99037.28
2022-10-13T12:13:53.645Z,99029.38
2022-10-13T12:16:21.556Z,99036.34
2022-10-13T12:18:51.438Z,99038.91
2022-10-13T12:21:22.339Z,99031.81
2022-10-13T12:23:51.115Z,99035.34
2022-10-13T12:26:24.101Z,99024.66
2022-10-13T12:28:55.002Z,99024.66
2022-10-13T12:31:24.588Z,99029.00
2022-10-13T12:33:58.103Z,99022.75
2022-10-13T12:36:31.192Z,99021.78
2022-10-13T12:39:13.555Z,99019.16
2022-10-13T12:41:43.784Z,98976.84
2022-10-13T12:44:29.238Z,99014.72
2022-10-13T12:47:01.967Z,99009.44
2022-10-13T12:49:30.928Z,99011.13
2022-10-13T12:52:23.441Z,99008.50
2022-10-13T12:54:54.005Z,99003.94
2022-10-13T12:57:22.323Z,99004.81
2022-10-13T12:59:49.416Z,99003.94
2022-10-13T13:02:26.970Z,98996.88
2022-10-13T13:04:55.399Z,99005.63
2022-10-13T13:07:28.883Z,98995.94
2022-10-13T13:10:07.676Z,98999.41
2022-10-13T13:12:36.525Z,98996.75
2022-10-13T13:15:24.881Z,98995.81
2022-10-13T13:17:58.315Z,98995.81
2022-10-13T13:20:34.805Z,98990.53
2022-10-13T13:23:01.406Z,98989.59
2022-10-13T13:25:28.058Z,98986.06
2022-10-13T13:27:54.785Z,98982.50
2022-10-13T13:30:22.953Z,98983.25
2022-10-13T13:32:50.434Z,98979.72
2022-10-13T13:35:17.208Z,98977.84
2022-10-13T13:37:51.430Z,98974.38
2022-10-13T13:40:23.518Z,98974.38
2022-10-13T13:42:50.537Z,98978.69
2022-10-13T13:45:20.299Z,98977.72
2022-10-13T13:47:47.561Z,98973.38
2022-10-13T13:50:27.571Z,98976.91
2022-10-13T13:52:57.324Z,98975.97
2022-10-13T13:55:24.282Z,98964.81
2022-10-13T13:57:54.399Z,98968.03
2022-10-13T14:00:22.201Z,98974.25
2022-10-13T14:02:54.744Z,98965.47
2022-10-13T14:05:21.368Z,98964.50
2022-10-13T14:07:47.921Z,98971.63
2022-10-13T14:10:14.599Z,98962.94
2022-10-13T14:12:41.140Z,98964.63
2022-10-13T14:15:08.468Z,98963.69
2022-10-13T14:17:34.980Z,98965.47
2022-10-13T14:20:01.696Z,98966.31
2022-10-13T14:22:28.339Z,98964.50
2022-10-13T14:24:54.953Z,98969.91
2022-10-13T14:27:21.556Z,98971.63
2022-10-13T14:29:48.413Z,98971.72
2022-10-13T14:32:15.628Z,98961.16
2022-10-13T14:34:42.179Z,98966.31
2022-10-13T14:37:08.775Z,98964.63
2022-10-13T14:39:35.435Z,98960.28
2022-10-13T14:42:01.988Z,98958.50
2022-10-13T14:44:28.588Z,98962.94
2022-10-13T14:46:55.162Z,98963.78
2022-10-13T14:49:21.815Z,98958.50
2022-10-13T14:51:52.963Z,98957.53
2022-10-13T14:54:19.674Z,98960.28
2022-10-13T14:56:46.160Z,98955.00
2022-10-13T14:59:12.887Z,98960.28
2022-10-13T15:01:41.448Z,98958.50
2022-10-13T15:04:09.067Z,98955.84
2022-10-13T15:06:39.436Z,98955.84
2022-10-13T15:09:07.019Z,98962.94
2022-10-13T15:11:34.001Z,98948.75
2022-10-13T15:14:00.911Z,98945.28
2022-10-13T15:16:29.818Z,98953.22
2022-10-13T15:20:49.992Z,98952.22
2022-10-13T15:23:16.744Z,98955.84
2022-10-13T15:26:00.612Z,98955.75
2022-10-13T15:28:30.195Z,98935.59
2022-10-13T15:30:56.899Z,98959.44
2022-10-13T15:33:23.501Z,98956.81
2022-10-13T15:35:51.011Z,98953.28
2022-10-13T15:38:19.267Z,98960.28
2022-10-13T15:40:46.564Z,98954.16
2022-10-13T15:43:13.840Z,98953.28
2022-10-13T15:45:40.772Z,98954.22
2022-10-13T15:48:09.006Z,98956.88
2022-10-13T15:50:39.648Z,98942.94
2022-10-13T15:53:06.970Z,98941.44
2022-10-13T15:55:35.027Z,98950.00
2022-10-13T15:58:01.721Z,98948.41
2022-10-13T16:00:28.417Z,98942.19
2022-10-13T16:02:55.042Z,98940.41
2022-10-13T16:05:21.856Z,98943.13
2022-10-13T16:07:48.399Z,98950.22
2022-10-13T16:10:16.002Z,98947.59
2022-10-13T16:12:48.305Z,98941.53
2022-10-13T16:15:17.790Z,98941.53
2022-10-13T16:17:46.223Z,98938.91
2022-10-13T16:20:12.963Z,98939.84
2022-10-13T16:22:39.519Z,98936.38
2022-10-13T16:25:06.735Z,98942.47
2022-10-13T16:27:33.262Z,98939.94
2022-10-13T16:29:59.868Z,98947.88
2022-10-13T16:32:26.423Z,98937.41
2022-10-13T16:34:53.382Z,98944.47
2022-10-13T16:37:20.421Z,98948.94
2022-10-13T16:39:51.403Z,98941.13
2022-10-13T16:42:18.696Z,98937.53
2022-10-13T16:44:45.231Z,98941.94
2022-10-13T16:47:17.362Z,98943.75
2022-10-13T16:49:44.922Z,98946.41
2022-10-13T16:52:12.372Z,98943.84
2022-10-13T16:54:39.173Z,98948.28
2022-10-13T16:57:05.708Z,98950.94
2022-10-13T16:59:32.748Z,98950.94
2022-10-13T17:01:59.402Z,98944.78
2022-10-13T17:04:26.281Z,98951.00
2022-10-13T17:06:52.797Z,98953.66
2022-10-13T17:09:19.372Z,98950.13
2022-10-13T17:11:46.401Z,98941.56
2022-10-13T17:14:13.035Z,98958.94
2022-10-13T17:16:39.584Z,98949.31
2022-10-13T17:19:06.755Z,98944.97
2022-10-13T17:21:35.563Z,98948.47
2022-10-13T17:24:03.493Z,98946.78
2022-10-13T17:26:32.010Z,98947.59
2022-10-13T17:28:58.901Z,98940.53
2022-10-13T17:31:25.510Z,98944.97
2022-10-13T17:33:53.084Z,98937.97
2022-10-13T17:36:25.811Z,98933.56
2022-10-13T17:38:55.694Z,98940.63
2022-10-13T17:41:23.707Z,98936.28
2022-10-13T17:43:52.593Z,98943.38
2022-10-13T17:46:42.853Z,98936.38
2022-10-13T17:49:12.043Z,98935.56
2022-10-13T17:51:40.559Z,98941.78
2022-10-13T17:56:21.040Z,98934.78
2022-10-13T17:58:51.591Z,98920.19
2022-10-13T18:01:21.382Z,98932.25
2022-10-13T18:03:56.673Z,98931.41
2022-10-13T18:06:36.878Z,98929.72
2022-10-13T18:09:13.664Z,98928.75
2022-10-13T18:11:46.873Z,98931.41
2022-10-13T18:14:16.363Z,98936.69
2022-10-13T18:18:19.022Z,98934.16
2022-10-13T18:20:45.652Z,98928.88
2022-10-13T18:23:12.235Z,98927.16
2022-10-13T18:25:39.571Z,98923.69
2022-10-13T18:28:06.089Z,98928.97
2022-10-13T18:30:32.941Z,98928.09
2022-10-13T18:32:59.733Z,98921.16
2022-10-13T18:35:31.326Z,98926.44
2022-10-13T18:37:58.838Z,98925.56
2022-10-13T18:40:25.761Z,98916.81
2022-10-13T18:42:54.796Z,98926.44
2022-10-13T18:45:21.646Z,98922.22
2022-10-13T18:47:51.266Z,98924.75
2022-10-13T18:50:17.871Z,98926.53
2022-10-13T18:52:44.395Z,98925.69
2022-10-13T18:55:10.963Z,98930.03
2022-10-13T18:57:39.279Z,98931.81
2022-10-13T19:02:42.296Z,98922.22
2022-10-13T19:05:09.540Z,98929.28
2022-10-13T19:10:04.376Z,98906.19
2022-10-13T19:12:31.330Z,98923.97
2022-10-13T19:14:57.996Z,98922.28
2022-10-13T19:17:26.231Z,98925.78
2022-10-13T19:19:53.029Z,98916.16
2022-10-13T19:24:54.020Z,98919.66
2022-10-13T19:27:21.075Z,98919.75
2022-10-13T19:29:51.787Z,98919.66
2022-10-13T19:34:30.696Z,98913.53
2022-10-13T19:39:40.159Z,98909.19
2022-10-13T19:42:09.121Z,98917.94
2022-10-13T19:47:07.941Z,98906.53
2022-10-13T19:49:38.040Z,98908.44
2022-10-13T19:54:37.044Z,98909.28
2022-10-13T19:57:03.698Z,98911.06
2022-10-13T20:01:57.868Z,98911.94
2022-10-13T20:04:24.469Z,98903.16
2022-10-13T20:09:16.022Z,98906.66
2022-10-13T20:11:46.240Z,98900.50
2022-10-13T20:14:14.342Z,98899.66
2022-10-13T20:16:41.229Z,98896.28
2022-10-13T20:19:08.011Z,98904.84
2022-10-13T20:24:03.733Z,98901.38
2022-10-13T20:26:30.326Z,98900.50
2022-10-13T20:28:58.167Z,98892.56
2022-10-13T20:31:25.933Z,98895.13
2022-10-13T20:33:57.183Z,98897.84
2022-10-13T20:36:28.395Z,98898.72
2022-10-13T20:38:55.355Z,98890.78
2022-10-13T20:41:25.892Z,98897.78
2022-10-13T20:43:54.702Z,98889.94
2022-10-13T20:46:21.758Z,98889.84
2022-10-13T20:49:09.845Z,98889.84
2022-10-13T20:51:35.308Z,98886.34
2022-10-13T20:54:01.964Z,98892.50
2022-10-13T20:56:28.581Z,98885.50
2022-10-13T20:58:55.278Z,98884.75
2022-10-13T21:01:22.981Z,98889.00
2022-10-13T21:03:55.684Z,98891.63
2022-10-13T21:08:30.112Z,98885.50
2022-10-13T21:10:56.925Z,98882.88
2022-10-13T21:15:54.465Z,98886.34
2022-10-13T21:18:21.634Z,98879.34
2022-10-13T21:23:15.705Z,98884.66
2022-10-13T21:25:42.348Z,98884.66
2022-10-13T21:30:45.856Z,98880.34
2022-10-13T21:33:12.480Z,98897.97
2022-10-13T21:35:39.003Z,98877.69
2022-10-13T21:38:05.570Z,98875.88
2022-10-13T21:40:32.108Z,98877.69
2022-10-13T21:42:59.080Z,98875.88
2022-10-13T21:45:25.616Z,98870.59
2022-10-13T21:47:52.184Z,98870.59
2022-10-13T21:50:19.841Z,98868.78
2022-10-13T21:52:46.435Z,98875.06
2022-10-13T21:55:14.080Z,98878.53
2022-10-13T22:00:14.657Z,98882.13
2022-10-13T22:02:41.724Z,98886.47
2022-10-13T22:07:41.508Z,98884.75
2022-10-13T22:10:08.542Z,98879.59
2022-10-13T22:15:04.108Z,98869.72
2022-10-13T22:17:30.713Z,98883.16
2022-10-13T22:19:57.391Z,98884.97
2022-10-13T22:22:28.676Z,98877.88
2022-10-13T22:24:57.396Z,98875.25
2022-10-13T22:27:26.266Z,98878.72
2022-10-13T22:29:54.326Z,98877.88
2022-10-13T22:32:21.448Z,98876.94
2022-10-13T22:37:20.451Z,98877.78
2022-10-13T22:39:47.208Z,98880.53
2022-10-13T22:42:13.689Z,98880.41
2022-10-13T22:44:40.316Z,98878.81
2022-10-13T22:47:06.982Z,98874.41
2022-10-13T22:49:33.609Z,98872.59
2022-10-13T22:52:00.115Z,98872.59
2022-10-13T22:54:26.761Z,98869.13
2022-10-13T22:56:54.106Z,98873.44
2022-10-13T22:59:20.686Z,98872.59
2022-10-13T23:01:47.213Z,98872.59
2022-10-13T23:04:14.021Z,98878.72
2022-10-13T23:06:40.578Z,98873.44
2022-10-13T23:09:10.432Z,98872.59
2022-10-13T23:11:37.680Z,98862.22
2022-10-13T23:14:05.537Z,98874.28
2022-10-13T23:16:32.528Z,98857.56
2022-10-13T23:18:59.059Z,98854.09
2022-10-13T23:21:28.522Z,98848.81
2022-10-13T23:23:56.836Z,98846.06
2022-10-13T23:26:23.937Z,98851.47
2022-10-13T23:28:51.070Z,98848.81
2022-10-13T23:31:18.567Z,98840.06
2022-10-13T23:33:45.481Z,98842.69
2022-10-13T23:36:20.983Z,98838.34
2022-10-13T23:38:48.292Z,98827.56
2022-10-13T23:41:16.044Z,98844.47
2022-10-13T23:43:43.558Z,98823.09
2022-10-13T23:46:10.946Z,98843.66
2022-10-13T23:48:38.758Z,98843.66
2022-10-13T23:51:23.239Z,98817.19
2022-10-13T23:53:49.804Z,98837.59
2022-10-13T23:56:17.294Z,98826.22
2022-10-13T23:58:44.695Z,98829.69
